ADDS METAR Data INFO
IDs: Format: Raw Decoded Include TAF

Data at: 0037 UTC 23 Oct 2017

KD95 230032Z AUTO 16005KT 10SM SCT090 20/12 A3003 RMK AO2 T02010120
KD95 230013Z AUTO 15006KT 10SM SCT090 21/12 A3003 RMK AO2 T02050120
KD95 222353Z AUTO 16006KT 10SM CLR 20/12 A3003 RMK AO2 T02040120 10240 20204
KD95 222332Z AUTO 16006KT 10SM CLR 21/12 A3003 RMK AO2 T02080121
KD95 222313Z AUTO 16005KT 10SM CLR 21/12 A3003 RMK AO2 T02100124
KD95 222253Z AUTO 17007KT 10SM CLR 21/13 A3003 RMK AO2 T02120126
KD95 222232Z AUTO 17006KT 10SM CLR 21/13 A3003 RMK AO2 T02110128
KD95 222213Z AUTO 17007KT 10SM CLR 22/13 A3003 RMK AO2 T02150129
KD95 222153Z AUTO 17006KT 10SM CLR 22/13 A3003 RMK AO2 T02160130
KD95 222133Z AUTO 16009KT 10SM CLR 22/13 A3002 RMK AO2 T02160131
KD95 222113Z AUTO 17009KT 10SM CLR 22/13 A3003 RMK AO2 T02200133
KD95 222052Z AUTO 17010KT 10SM CLR 23/14 A3003 RMK AO2 T02290136
KD95 222033Z AUTO 18012G18KT 10SM CLR 23/14 A3003 RMK AO2 T02330137
KD95 222013Z AUTO 17010G18KT 10SM CLR 24/14 A3003 RMK AO2 T02360135
KD95 221952Z AUTO 19007G20KT 10SM CLR 24/14 A3003 RMK AO2 T02370135
KD95 221933Z AUTO 19015G20KT 10SM CLR 24/13 A3003 RMK AO2 T02380132
KD95 221913Z AUTO 20011G19KT 10SM CLR 24/13 A3004 RMK AO2 T02380129
KD95 221852Z AUTO 21015G21KT 10SM CLR 24/13 A3004 RMK AO2 T02360126
KD95 221833Z AUTO 21016G22KT 10SM CLR 24/13 A3006 RMK AO2 T02360128
KD95 221813Z AUTO 19016G21KT 10SM CLR 23/13 A3006 RMK AO2 T02310129
KD95 221752Z AUTO 19013G21KT 10SM CLR 23/13 A3007 RMK AO2 T02310131 10231 20130
KD95 221733Z AUTO 18012G20KT 10SM CLR 23/13 A3008 RMK AO2 T02270129
KD95 221713Z AUTO 19014G20KT 10SM CLR 23/12 A3009 RMK AO2 T02260124
KD95 221652Z AUTO 19011G18KT 10SM CLR 22/12 A3011 RMK AO2 T02220121
KD95 221633Z AUTO 19012G19KT 10SM CLR 22/12 A3011 RMK AO2 T02150115
KD95 221613Z AUTO 19012G22KT 10SM CLR 21/12 A3012 RMK AO2 T02130116
KD95 221552Z AUTO 19012G19KT 10SM CLR 21/12 A3013 RMK AO2 T02110115
KD95 221533Z AUTO 18011G14KT 10SM CLR 21/11 A3014 RMK AO2 T02070111
KD95 221513Z AUTO 17010G14KT 10SM CLR 20/11 A3014 RMK AO2 T02000109
KD95 221452Z AUTO 18008G14KT 10SM CLR 19/11 A3014 RMK AO2 T01920109
KD95 221433Z AUTO 20010G15KT 10SM CLR 19/11 A3015 RMK AO2 T01860105
KD95 221413Z AUTO 18010G15KT 10SM CLR 18/10 A3015 RMK AO2 T01800103
KD95 221352Z AUTO 19010KT 10SM CLR 17/10 A3015 RMK AO2 T01730098
KD95 221333Z AUTO 19009G16KT 10SM CLR 17/10 A3016 RMK AO2 T01660096
KD95 221313Z AUTO 19009G14KT 10SM CLR 16/09 A3016 RMK AO2 T01600092
KD95 221252Z AUTO 18006KT 10SM CLR 15/09 A3015 RMK AO2 T01510090
KD95 221233Z AUTO 18005KT 10SM CLR 15/09 A3015 RMK AO2 T01450089
KD95 221212Z AUTO 15003KT 10SM CLR 13/08 A3014 RMK AO2 T01320082
KD95 221153Z AUTO 14003KT 10SM CLR 13/08 A3014 RMK AO2 T01340080 10160 20134
KD95 221133Z AUTO 16005KT 10SM CLR 14/08 A3013 RMK AO2 T01390080
KD95 221112Z AUTO 16004KT 10SM CLR 14/08 A3014 RMK AO2 T01380078
KD95 221053Z AUTO 17005KT 10SM CLR 14/08 A3013 RMK AO2 T01380078
KD95 221033Z AUTO 16004KT 10SM CLR 14/08 A3014 RMK AO2 T01400077
KD95 221012Z AUTO 18006KT 10SM CLR 14/08 A3015 RMK AO2 T01410077
KD95 220953Z AUTO 18005KT 10SM CLR 14/08 A3015 RMK AO2 T01420078
KD95 220933Z AUTO 18005KT 10SM CLR 14/08 A3015 RMK AO2 T01430079
KD95 220912Z AUTO 17006KT 10SM CLR 15/08 A3015 RMK AO2 T01450079
KD95 220853Z AUTO 19005KT 10SM CLR 15/08 A3016 RMK AO2 T01470080
KD95 220832Z AUTO 20005KT 10SM CLR 15/08 A3016 RMK AO2 T01520078
KD95 220813Z AUTO 20006KT 10SM CLR 15/08 A3015 RMK AO2 T01530078
KD95 220753Z AUTO 19005KT 10SM CLR 15/08 A3015 RMK AO2 T01490078
KD95 220732Z AUTO 20005KT 10SM CLR 15/08 A3016 RMK AO2 T01500077
KD95 220713Z AUTO 20005KT 10SM CLR 16/08 A3016 RMK AO2 T01550076
KD95 220653Z AUTO 20006KT 10SM CLR 16/08 A3016 RMK AO2 T01570076
KD95 220632Z AUTO 20007KT 10SM CLR 16/08 A3016 RMK AO2 T01590076
KD95 220613Z AUTO 20005KT 10SM CLR 15/08 A3016 RMK AO2 T01510080
KD95 220553Z AUTO 20004KT 10SM CLR 15/08 A3015 RMK AO2 T01510081 10185 20151 402300066
KD95 220532Z AUTO 20006KT 10SM CLR 16/09 A3015 RMK AO2 T01600085
KD95 220513Z AUTO 21006KT 10SM CLR 16/09 A3015 RMK AO2 T01600087
KD95 220453Z AUTO 21006KT 10SM CLR 16/09 A3015 RMK AO2 T01610088
KD95 220432Z AUTO 20007KT 10SM CLR 17/09 A3015 RMK AO2 T01650091
KD95 220413Z AUTO 21007KT 10SM CLR 17/10 A3015 RMK AO2 T01680096
KD95 220353Z AUTO 20007KT 10SM CLR 17/10 A3015 RMK AO2 T01700100
KD95 220332Z AUTO 19008KT 10SM CLR 17/10 A3015 RMK AO2 T01720102
KD95 220313Z AUTO 18006KT 10SM CLR 17/10 A3015 RMK AO2 T01700103
KD95 220253Z AUTO 17004KT 10SM CLR 17/10 A3015 RMK AO2 T01650103
KD95 220232Z AUTO 16005KT 10SM CLR 17/10 A3015 RMK AO2 T01700102
KD95 220213Z AUTO 16006KT 10SM CLR 17/10 A3015 RMK AO2 T01740102
KD95 220153Z AUTO 17006KT 10SM CLR 17/11 A3015 RMK AO2 T01720105
KD95 220132Z AUTO 17006KT 10SM CLR 17/11 A3016 RMK AO2 T01720106
KD95 220113Z AUTO 17005KT 10SM CLR 18/11 A3016 RMK AO2 T01770109
KD95 220052Z AUTO 17006KT 10SM CLR 18/11 A3016 RMK AO2 T01800111
KD95 220033Z AUTO 16006KT 10SM CLR 18/12 A3017 RMK AO2 T01770115
KD95 220013Z AUTO 17004KT 10SM CLR 18/12 A3016 RMK AO2 T01810115
KD95 212352Z AUTO 16005KT 10SM CLR 19/12 A3016 RMK AO2 T01850116 10230 20183
KD95 212333Z AUTO 17005KT 10SM CLR 18/12 A3016 RMK AO2 T01830117
KD95 212313Z AUTO 16005KT 10SM CLR 19/12 A3015 RMK AO2 T01910115
KD95 212252Z AUTO 15005KT 10SM CLR 19/12 A3015 RMK AO2 T01910116
KD95 212233Z AUTO 17006KT 10SM CLR 19/12 A3016 RMK AO2 T01910119
KD95 212213Z AUTO 18007KT 10SM CLR 20/12 A3015 RMK AO2 T01970120
KD95 212152Z AUTO 18005KT 10SM CLR 20/12 A3015 RMK AO2 T02020119
KD95 212133Z AUTO 19004KT 10SM CLR 20/12 A3015 RMK AO2 T02020115
KD95 212113Z AUTO 19006KT 10SM CLR 21/11 A3015 RMK AO2 T02080108
KD95 212052Z AUTO 19008G16KT 10SM CLR 22/10 A3015 RMK AO2 T02180104
KD95 212033Z AUTO 17010KT 10SM CLR 22/10 A3014 RMK AO2 T02220104
KD95 212013Z AUTO 18010KT 10SM CLR 22/11 A3015 RMK AO2 T02200106
KD95 211952Z AUTO 18010KT 10SM CLR 22/11 A3015 RMK AO2 T02200106
KD95 211933Z AUTO 18008G17KT 10SM CLR 23/10 A3015 RMK AO2 T02280103
KD95 211913Z AUTO 19010KT 10SM CLR 23/10 A3015 RMK AO2 T02300103
KD95 211852Z AUTO 19009G17KT 10SM CLR 23/11 A3016 RMK AO2 T02260107
KD95 211833Z AUTO 20012G15KT 10SM CLR 22/11 A3016 RMK AO2 T02220113
KD95 211813Z AUTO 21010KT 10SM CLR 22/10 A3017 RMK AO2 T02230103
KD95 211753Z AUTO 21008G14KT 10SM CLR 22/11 A3017 RMK AO2 T02240107 10225 20070
KD95 211733Z AUTO 21011G15KT 10SM CLR 23/11 A3018 RMK AO2 T02250105
KD95 211712Z AUTO 20010KT 10SM CLR 22/11 A3019 RMK AO2 T02190109
KD95 211653Z AUTO 19012G15KT 10SM CLR 22/11 A3019 RMK AO2 T02180110
KD95 211633Z AUTO 22009G15KT 10SM CLR 21/11 A3019 RMK AO2 T02120113
KD95 211612Z AUTO 21008KT 10SM CLR 21/11 A3020 RMK AO2 T02050111
KD95 211553Z AUTO 20009KT 10SM CLR 21/11 A3020 RMK AO2 T02050113
KD95 211533Z AUTO 20007KT 10SM CLR 20/11 A3020 RMK AO2 T01990114
KD95 211512Z AUTO 20006KT 10SM CLR 19/11 A3020 RMK AO2 T01870113
KD95 211453Z AUTO 21005KT 10SM CLR 20/11 A3020 RMK AO2 T01950112
KD95 211433Z AUTO 20006KT 10SM CLR 18/11 A3020 RMK AO2 T01770114
KD95 211412Z AUTO 17003KT 10SM CLR 16/12 A3020 RMK AO2 T01570120
KD95 211353Z AUTO 18003KT 10SM CLR 15/11 A3021 RMK AO2 T01450114
KD95 211332Z AUTO 00000KT 10SM CLR 12/11 A3020 RMK AO2 T01220105
KD95 211313Z AUTO 00000KT 10SM CLR 10/10 A3020 RMK AO2 T01010096
KD95 211253Z AUTO 00000KT 7SM CLR 09/08 A3020 RMK AO2 T00880083